map of KUH home
KUH - Airport
Location
City:  Kushiro, Hokkaido, Japan
Name:Kushiro Airport
ICAO:RJCK
IATA:KUH

Details
Type:Airport (Aerodrome, Airfield)
Use:Public/Civil
Latitude:43°02'27"N (43.040967)
Longitude:144°11'35"E (144.192986)
Datum:WGS 1984
Elevation:327 ft (100 m)
Variation:8.99°W (WMM2015 magnetic declination)
-0.04° annual change
Runways:1
Longest:8202 × 150 ft (2500 × 45.5 m), paved

Time
Time Zone:UTC+9
Local Time:

Weather
METAR:RJCK 162145Z 27005KT 9999 FEW030 BKN070 M05/M12 Q0999 RMK 1CU030 6AC070 A2952
TAF:RJCK 161712Z 1618/1800 30005KT 9999 FEW030
BECMG 1622/1700 26016KT
TEMPO 1700/1709 26020G30KT
BECMG 1709/1712 23012KT

Related Locations
Nearby:
Farthest:CTQ: 11284 mi / 18159 km
Santa Vitória do Palmar [Aeropuerto Fernando Ferrari], RS, BR

Find:

   beyond  
but within

Other Information
Maps:
NOTAMs:
Links:
Sources:

  
  • flag of Japan
  • flag of Hokkaido
  

Sectional Chart

Flight Planning
at skyvector.com

Satellite Image

Google Maps Satellite view

 

Copyright © 2004-2019 Karl L. Swartz. All rights reserved.
The Great Circle Mapper name and logo are trademarks of the Great Circle Mapper.
All other trademarks mentioned herein belong to their respective owners.
Please see credits for attibutions and further copyright information.

  Follow gcmap on Facebook Follow gcmap on Twitter Follow gcmap on Google+ GCmap on LinkedIn

hCard Microformat

Geo Microformat